Time;durP1;ratioP1;P1;durP2;ratioP2;P2;SDS_P1;SDS_P2;PMS_P1;PMS_P2;Temp;Humidity;BMP_temperature;BMP_pressure;BME280_temperature;BME280_humidity;BME280_pressure;Samples;Min_cycle;Max_cycle;Signal;HPM_P1;HPM_P2
2022/08/24 00:00:26;;;;;;;3.83;3.13;;;;;;;;;;5010108;28;20229;-80
2022/08/24 00:02:51;;;;;;;3.10;2.90;;;;;;;;;;5012087;28;20170;-81
2022/08/24 00:05:17;;;;;;;3.50;3.20;;;;;;;;;;5011148;28;20205;-78
2022/08/24 00:07:42;;;;;;;3.93;2.73;;;;;;;;;;5011096;28;20170;-77
2022/08/24 00:10:09;;;;;;;3.00;2.80;;;;;;;;;;5011093;28;20178;-80
2022/08/24 00:12:34;;;;;;;3.13;2.90;;;;;;;;;;5012078;28;20209;-81
2022/08/24 00:14:59;;;;;;;3.60;3.30;;;;;;;;;;5007362;28;20182;-81
2022/08/24 00:17:24;;;;;;;3.10;2.80;;;;;;;;;;4991410;28;20220;-79
2022/08/24 00:19:50;;;;;;;3.73;3.00;;;;;;;;;;5012442;28;20261;-81
2022/08/24 00:22:16;;;;;;;3.53;3.23;;;;;;;;;;5018381;28;20173;-79
2022/08/24 00:24:41;;;;;;;3.40;3.10;;;;;;;;;;5012027;28;20188;-81
2022/08/24 00:27:07;;;;;;;3.70;3.10;;;;;;;;;;5010657;28;20179;-80
2022/08/24 00:29:33;;;;;;;4.23;3.00;;;;;;;;;;5010573;28;20183;-80
2022/08/24 00:31:58;;;;;;;3.30;3.00;;;;;;;;;;5005950;28;20208;-80
2022/08/24 00:34:25;;;;;;;4.43;3.10;;;;;;;;;;5002234;28;20201;-80
2022/08/24 00:36:50;;;;;;;3.43;2.90;;;;;;;;;;5010551;28;20175;-81
2022/08/24 00:39:16;;;;;;;3.80;3.50;;;;;;;;;;5011481;28;20166;-80
2022/08/24 00:41:42;;;;;;;3.93;3.10;;;;;;;;;;5011686;28;20261;-81
2022/08/24 00:44:09;;;;;;;3.30;3.00;;;;;;;;;;5010277;28;20243;-80
2022/08/24 00:46:44;;;;;;;2.87;2.60;;;;;;;;;;5010247;28;20185;-79
2022/08/24 00:49:17;;;;;;;3.23;2.93;;;;;;;;;;5010473;28;20211;-81
2022/08/24 00:51:46;;;;;;;3.67;3.37;;;;;;;;;;5011146;28;20189;-80
2022/08/24 00:54:13;;;;;;;3.13;2.90;;;;;;;;;;5009866;28;20388;-82
2022/08/24 00:56:45;;;;;;;5.17;3.10;;;;;;;;;;5010280;28;20595;-80
2022/08/24 00:59:13;;;;;;;3.33;3.07;;;;;;;;;;5010992;28;20252;-81
2022/08/24 01:01:38;;;;;;;2.93;2.73;;;;;;;;;;5011291;28;20179;-81
2022/08/24 01:04:05;;;;;;;3.70;3.27;;;;;;;;;;5011049;28;20189;-78
2022/08/24 01:06:32;;;;;;;3.10;2.60;;;;;;;;;;5006717;28;20183;-79
2022/08/24 01:08:57;;;;;;;3.33;3.03;;;;;;;;;;4991113;28;20175;-82
2022/08/24 01:11:25;;;;;;;3.90;3.50;;;;;;;;;;4991456;28;20231;-81
2022/08/24 01:13:51;;;;;;;3.30;3.00;;;;;;;;;;4990170;28;20265;-79
2022/08/24 01:18:48;;;;;;;3.43;3.17;;;;;;;;;;4990533;28;20203;-79
2022/08/24 01:19:03;;;;;;;3.20;2.93;;;;;;;;;;4998590;28;20229;-79
2022/08/24 01:21:29;;;;;;;4.87;3.97;;;;;;;;;;5025538;28;20264;-80
2022/08/24 01:23:56;;;;;;;3.60;3.30;;;;;;;;;;5018011;28;20339;-81
2022/08/24 01:26:26;;;;;;;5.37;3.20;;;;;;;;;;5009851;28;20188;-81
2022/08/24 01:28:54;;;;;;;4.73;3.30;;;;;;;;;;5009536;28;20177;-80
2022/08/24 01:31:20;;;;;;;3.77;3.20;;;;;;;;;;5009630;28;20225;-81
2022/08/24 01:33:47;;;;;;;5.07;3.20;;;;;;;;;;5009180;28;20455;-78
2022/08/24 01:36:29;;;;;;;3.30;3.10;;;;;;;;;;5009770;28;20165;-78
2022/08/24 01:38:54;;;;;;;3.70;3.40;;;;;;;;;;5009391;28;20176;-80
2022/08/24 01:41:19;;;;;;;3.70;3.40;;;;;;;;;;5003640;28;20329;-81
2022/08/24 01:43:45;;;;;;;6.00;3.10;;;;;;;;;;5010444;28;20181;-81
2022/08/24 01:46:10;;;;;;;3.10;2.90;;;;;;;;;;5009218;28;20180;-81
2022/08/24 01:48:35;;;;;;;4.70;3.63;;;;;;;;;;5009214;28;20185;-80
2022/08/24 01:51:00;;;;;;;3.27;3.07;;;;;;;;;;5009211;28;20201;-82
2022/08/24 01:53:25;;;;;;;3.43;3.13;;;;;;;;;;5014074;28;20474;-81
2022/08/24 01:55:51;;;;;;;3.03;2.83;;;;;;;;;;5009874;28;20183;-78
2022/08/24 01:58:16;;;;;;;3.40;3.10;;;;;;;;;;5019553;28;20185;-81
2022/08/24 02:00:42;;;;;;;3.67;3.43;;;;;;;;;;5009402;28;20264;-81
2022/08/24 02:03:07;;;;;;;5.37;3.20;;;;;;;;;;5008911;28;20173;-81
2022/08/24 02:05:33;;;;;;;3.80;3.60;;;;;;;;;;5009617;28;20188;-82
2022/08/24 02:07:58;;;;;;;5.50;3.20;;;;;;;;;;5009347;28;20199;-82
2022/08/24 02:10:23;;;;;;;6.43;3.57;;;;;;;;;;5009317;28;20182;-78
2022/08/24 02:12:56;;;;;;;3.90;3.40;;;;;;;;;;5008989;28;20180;-80
2022/08/24 02:15:26;;;;;;;3.93;3.50;;;;;;;;;;4990866;28;20193;-80
2022/08/24 02:17:52;;;;;;;3.67;3.37;;;;;;;;;;5005845;28;20179;-80
2022/08/24 02:20:17;;;;;;;6.17;3.70;;;;;;;;;;5033441;28;20189;-81
2022/08/24 02:22:43;;;;;;;3.40;3.20;;;;;;;;;;5015210;28;20179;-80
2022/08/24 02:25:08;;;;;;;3.43;3.10;;;;;;;;;;5014083;28;20168;-81
2022/08/24 02:27:33;;;;;;;3.83;2.70;;;;;;;;;;5013069;28;20255;-79
2022/08/24 02:29:59;;;;;;;3.23;3.03;;;;;;;;;;5011124;28;20189;-82
2022/08/24 02:32:24;;;;;;;4.43;3.27;;;;;;;;;;5017036;28;20203;-81
2022/08/24 02:34:49;;;;;;;4.40;3.70;;;;;;;;;;5013948;28;20193;-79
2022/08/24 02:37:15;;;;;;;3.67;3.37;;;;;;;;;;5012847;28;20172;-81
2022/08/24 02:39:40;;;;;;;3.67;3.37;;;;;;;;;;5012742;28;20200;-80
2022/08/24 02:42:05;;;;;;;3.37;3.07;;;;;;;;;;5012456;28;20185;-80
2022/08/24 02:44:30;;;;;;;4.73;3.70;;;;;;;;;;5012607;28;20176;-82
2022/08/24 02:46:56;;;;;;;4.13;3.70;;;;;;;;;;5011633;28;20213;-81
2022/08/24 02:49:22;;;;;;;3.53;3.23;;;;;;;;;;5013550;28;20240;-81
2022/08/24 02:51:47;;;;;;;3.50;3.20;;;;;;;;;;5012262;28;20319;-80
2022/08/24 02:54:16;;;;;;;5.47;3.47;;;;;;;;;;5012678;28;20179;-79
2022/08/24 02:56:41;;;;;;;3.13;2.83;;;;;;;;;;5012501;28;20176;-81
2022/08/24 02:59:07;;;;;;;3.70;3.40;;;;;;;;;;5011710;28;20210;-80
2022/08/24 03:01:32;;;;;;;3.73;3.43;;;;;;;;;;5013615;28;20170;-82
2022/08/24 03:03:57;;;;;;;3.43;2.90;;;;;;;;;;5010394;28;20188;-81
2022/08/24 03:06:23;;;;;;;3.67;3.20;;;;;;;;;;5008857;28;20188;-79
2022/08/24 03:08:49;;;;;;;4.33;3.10;;;;;;;;;;5008934;28;20194;-81
2022/08/24 03:11:15;;;;;;;4.13;3.20;;;;;;;;;;4993693;28;20230;-81
2022/08/24 03:13:40;;;;;;;4.33;3.60;;;;;;;;;;5008822;28;20197;-81
2022/08/24 03:16:06;;;;;;;3.90;3.10;;;;;;;;;;5008448;28;20180;-82
2022/08/24 03:18:31;;;;;;;3.63;3.30;;;;;;;;;;4993565;28;20168;-81
2022/08/24 03:20:58;;;;;;;3.67;3.37;;;;;;;;;;5042223;28;20204;-77
2022/08/24 03:23:24;;;;;;;5.30;3.30;;;;;;;;;;5011581;28;20274;-79
2022/08/24 03:25:50;;;;;;;4.07;3.40;;;;;;;;;;5011921;28;20206;-81
2022/08/24 03:28:16;;;;;;;3.87;3.57;;;;;;;;;;5012922;28;20178;-81
2022/08/24 03:30:42;;;;;;;3.53;3.10;;;;;;;;;;5011597;28;20257;-80
2022/08/24 03:33:07;;;;;;;3.57;3.27;;;;;;;;;;5010654;28;20196;-80
2022/08/24 03:35:33;;;;;;;5.70;3.47;;;;;;;;;;5012734;28;20210;-81
2022/08/24 03:37:58;;;;;;;3.53;3.23;;;;;;;;;;5011105;28;20269;-82
2022/08/24 03:40:24;;;;;;;7.23;3.50;;;;;;;;;;4998112;28;20225;-80
2022/08/24 03:42:49;;;;;;;4.67;3.70;;;;;;;;;;5012194;28;20182;-80
2022/08/24 03:45:14;;;;;;;3.67;3.37;;;;;;;;;;5011080;28;20317;-81
2022/08/24 03:47:40;;;;;;;4.77;3.67;;;;;;;;;;5006659;28;20214;-80
2022/08/24 03:50:05;;;;;;;3.30;2.87;;;;;;;;;;5024254;28;20179;-81
2022/08/24 03:52:31;;;;;;;3.40;3.10;;;;;;;;;;5011568;28;20204;-81
2022/08/24 03:54:56;;;;;;;2.97;2.77;;;;;;;;;;5010940;28;20167;-82
2022/08/24 03:57:22;;;;;;;7.17;4.13;;;;;;;;;;5010076;28;20168;-81
2022/08/24 03:59:48;;;;;;;4.00;3.40;;;;;;;;;;5010069;28;20248;-82
2022/08/24 04:02:13;;;;;;;3.60;3.30;;;;;;;;;;5012334;28;20214;-81
2022/08/24 04:04:38;;;;;;;5.40;4.13;;;;;;;;;;5011233;28;20183;-81
2022/08/24 04:07:04;;;;;;;4.47;3.93;;;;;;;;;;5012165;28;20175;-81
2022/08/24 04:09:29;;;;;;;4.00;3.60;;;;;;;;;;5010853;28;20262;-79
2022/08/24 04:11:54;;;;;;;4.77;2.97;;;;;;;;;;5010805;28;20222;-80
2022/08/24 04:14:20;;;;;;;5.63;3.70;;;;;;;;;;5007245;28;20171;-80
2022/08/24 04:16:45;;;;;;;4.37;3.30;;;;;;;;;;5007580;28;20179;-80
2022/08/24 04:19:12;;;;;;;7.10;3.10;;;;;;;;;;5016872;28;20196;-81
2022/08/24 04:21:37;;;;;;;3.67;3.20;;;;;;;;;;5024665;28;20183;-80
2022/08/24 04:24:04;;;;;;;3.70;3.37;;;;;;;;;;5010842;28;20224;-79
2022/08/24 04:26:30;;;;;;;3.77;3.20;;;;;;;;;;5010737;28;20180;-81
2022/08/24 04:28:56;;;;;;;3.43;3.13;;;;;;;;;;5009597;28;20261;-82
2022/08/24 04:31:21;;;;;;;4.57;2.80;;;;;;;;;;5010726;28;20202;-81
2022/08/24 04:33:48;;;;;;;3.27;2.77;;;;;;;;;;5003318;28;20202;-81
2022/08/24 04:36:13;;;;;;;5.20;3.33;;;;;;;;;;5010502;28;20194;-82
2022/08/24 04:38:39;;;;;;;5.00;2.70;;;;;;;;;;5010708;28;20393;-79
2022/08/24 04:41:06;;;;;;;3.53;2.80;;;;;;;;;;5010398;28;20180;-80
2022/08/24 04:43:31;;;;;;;3.60;2.83;;;;;;;;;;5010060;28;20271;-81
2022/08/24 04:45:57;;;;;;;3.40;2.93;;;;;;;;;;5008454;28;20214;-82
2022/08/24 04:48:22;;;;;;;3.13;2.83;;;;;;;;;;5029127;28;20201;-80
2022/08/24 04:50:48;;;;;;;6.20;3.73;;;;;;;;;;5011288;28;20199;-81
2022/08/24 04:53:14;;;;;;;4.83;4.37;;;;;;;;;;5010133;28;20178;-79
2022/08/24 04:55:42;;;;;;;3.27;2.97;;;;;;;;;;5009930;28;20181;-79
2022/08/24 04:58:08;;;;;;;4.93;3.30;;;;;;;;;;5010764;28;20174;-80
2022/08/24 05:00:33;;;;;;;3.07;2.83;;;;;;;;;;5009945;28;20231;-80
2022/08/24 05:02:58;;;;;;;2.90;2.70;;;;;;;;;;5008044;28;20209;-81
2022/08/24 05:05:23;;;;;;;3.73;2.67;;;;;;;;;;4991987;28;20238;-81
2022/08/24 05:07:49;;;;;;;3.60;3.27;;;;;;;;;;5006717;28;20179;-82
2022/08/24 05:10:14;;;;;;;3.80;3.00;;;;;;;;;;5006816;28;20175;-81
2022/08/24 05:12:40;;;;;;;5.90;3.33;;;;;;;;;;5006097;28;20227;-78
2022/08/24 05:15:05;;;;;;;4.10;3.70;;;;;;;;;;5006684;28;20183;-81
2022/08/24 05:17:31;;;;;;;4.53;3.40;;;;;;;;;;5006606;28;20260;-82
2022/08/24 05:19:57;;;;;;;3.40;3.20;;;;;;;;;;5024475;28;20258;-80
2022/08/24 05:22:22;;;;;;;5.17;3.33;;;;;;;;;;5023545;28;20345;-80
2022/08/24 05:24:47;;;;;;;3.87;3.23;;;;;;;;;;5009661;28;20239;-81
2022/08/24 05:27:14;;;;;;;3.17;2.77;;;;;;;;;;5009271;28;20175;-81
2022/08/24 05:29:39;;;;;;;3.63;2.63;;;;;;;;;;5009741;28;20220;-80
2022/08/24 05:32:05;;;;;;;3.50;2.40;;;;;;;;;;5009687;28;20200;-79
2022/08/24 05:34:30;;;;;;;5.33;3.13;;;;;;;;;;5009222;28;20228;-78
2022/08/24 05:36:55;;;;;;;2.50;2.30;;;;;;;;;;5008183;28;20175;-81
2022/08/24 05:39:20;;;;;;;4.27;2.73;;;;;;;;;;5006183;28;20246;-80
2022/08/24 05:41:46;;;;;;;3.10;2.80;;;;;;;;;;5022372;28;20252;-82
2022/08/24 05:44:15;;;;;;;5.27;3.37;;;;;;;;;;5009606;28;20189;-81
2022/08/24 05:46:41;;;;;;;2.97;2.70;;;;;;;;;;5009709;28;20185;-81
2022/08/24 05:49:07;;;;;;;5.00;2.90;;;;;;;;;;5009399;28;20212;-82
2022/08/24 05:51:32;;;;;;;4.70;3.10;;;;;;;;;;5011449;28;20210;-80
2022/08/24 05:53:59;;;;;;;4.87;3.07;;;;;;;;;;5008509;28;20189;-82
2022/08/24 05:56:25;;;;;;;4.47;2.90;;;;;;;;;;5006041;28;20175;-82
2022/08/24 05:58:50;;;;;;;3.93;3.07;;;;;;;;;;5027965;28;20187;-82
2022/08/24 06:01:17;;;;;;;3.87;2.80;;;;;;;;;;5013077;28;20226;-82
2022/08/24 06:03:42;;;;;;;3.17;2.87;;;;;;;;;;5013521;28;20278;-83
2022/08/24 06:06:08;;;;;;;6.20;2.60;;;;;;;;;;5013497;28;20242;-82
2022/08/24 06:08:35;;;;;;;3.00;2.67;;;;;;;;;;5014385;28;20172;-82
2022/08/24 06:11:01;;;;;;;3.20;2.70;;;;;;;;;;5012267;28;20246;-82
2022/08/24 06:13:27;;;;;;;6.93;3.63;;;;;;;;;;5014168;28;20174;-81
2022/08/24 06:16:03;;;;;;;4.47;4.13;;;;;;;;;;5014389;28;20171;-82
2022/08/24 06:18:28;;;;;;;4.87;3.00;;;;;;;;;;5014058;28;20171;-82
2022/08/24 06:20:53;;;;;;;4.70;3.00;;;;;;;;;;5032937;28;20182;-81
2022/08/24 06:23:18;;;;;;;3.77;3.00;;;;;;;;;;5032770;28;20183;-80
2022/08/24 06:28:29;;;;;;;3.60;2.90;;;;;;;;;;5021307;28;20198;-79
2022/08/24 06:31:04;;;;;;;3.13;2.80;;;;;;;;;;5009241;28;20231;-82
2022/08/24 06:33:29;;;;;;;3.17;2.87;;;;;;;;;;5018154;28;20202;-79
2022/08/24 06:35:55;;;;;;;5.53;3.13;;;;;;;;;;5014186;28;20174;-81
2022/08/24 06:38:20;;;;;;;4.80;3.47;;;;;;;;;;5012529;28;20183;-81
2022/08/24 06:40:45;;;;;;;6.37;3.43;;;;;;;;;;5012563;28;20307;-82
2022/08/24 06:43:10;;;;;;;7.23;3.50;;;;;;;;;;5012516;28;20213;-82
2022/08/24 06:45:36;;;;;;;6.33;3.30;;;;;;;;;;5010358;28;20201;-80
2022/08/24 06:48:02;;;;;;;3.43;3.13;;;;;;;;;;5013469;28;20176;-82
2022/08/24 06:50:27;;;;;;;4.80;3.37;;;;;;;;;;5012576;28;20183;-82
2022/08/24 06:52:52;;;;;;;5.40;3.47;;;;;;;;;;5013514;28;20204;-80
2022/08/24 06:55:17;;;;;;;4.93;3.07;;;;;;;;;;5012598;28;20180;-82
2022/08/24 06:57:43;;;;;;;3.90;2.97;;;;;;;;;;5013951;28;20232;-83
2022/08/24 07:00:09;;;;;;;3.83;3.50;;;;;;;;;;5012862;28;20236;-80
2022/08/24 07:02:35;;;;;;;3.30;3.00;;;;;;;;;;5009017;28;20214;-82
2022/08/24 07:05:00;;;;;;;3.43;2.97;;;;;;;;;;5008869;28;20177;-82
2022/08/24 07:07:25;;;;;;;3.40;3.10;;;;;;;;;;5008695;28;20204;-77
2022/08/24 07:09:50;;;;;;;5.40;3.37;;;;;;;;;;5008911;28;20277;-79
2022/08/24 07:12:16;;;;;;;4.27;3.37;;;;;;;;;;5008941;28;20211;-80
2022/08/24 07:14:41;;;;;;;4.57;3.23;;;;;;;;;;5008688;28;20174;-82
2022/08/24 07:17:08;;;;;;;4.27;3.87;;;;;;;;;;5008731;28;20301;-80
2022/08/24 07:19:33;;;;;;;5.43;3.00;;;;;;;;;;5010355;28;20183;-81
2022/08/24 07:21:58;;;;;;;5.30;3.30;;;;;;;;;;5021433;28;20191;-79
2022/08/24 07:24:24;;;;;;;3.60;3.13;;;;;;;;;;5020009;28;20215;-81
2022/08/24 07:26:49;;;;;;;3.33;3.03;;;;;;;;;;5011901;28;20202;-82
2022/08/24 07:29:15;;;;;;;3.43;3.13;;;;;;;;;;5011646;28;20192;-79
2022/08/24 07:31:40;;;;;;;3.53;2.93;;;;;;;;;;5012795;28;20224;-81
2022/08/24 07:34:07;;;;;;;5.57;3.10;;;;;;;;;;5011229;28;20201;-82
2022/08/24 07:36:33;;;;;;;3.53;3.20;;;;;;;;;;5008505;28;20219;-82
2022/08/24 07:38:58;;;;;;;6.67;3.17;;;;;;;;;;5008256;28;20186;-82
2022/08/24 07:41:25;;;;;;;3.47;3.00;;;;;;;;;;5004977;28;20186;-81
2022/08/24 07:43:50;;;;;;;2.93;2.73;;;;;;;;;;5011109;28;20186;-82
2022/08/24 07:46:16;;;;;;;5.27;3.77;;;;;;;;;;5011359;28;20190;-80
2022/08/24 07:48:41;;;;;;;5.87;3.17;;;;;;;;;;5012539;28;20175;-82
2022/08/24 07:51:07;;;;;;;3.00;2.70;;;;;;;;;;5012634;28;20287;-82
2022/08/24 07:53:35;;;;;;;3.53;3.23;;;;;;;;;;5006080;28;20302;-82
2022/08/24 07:56:00;;;;;;;4.57;3.03;;;;;;;;;;4993017;28;20169;-81
2022/08/24 07:58:26;;;;;;;3.50;3.07;;;;;;;;;;5022574;28;20191;-80
2022/08/24 08:00:51;;;;;;;3.30;2.90;;;;;;;;;;5011223;28;20227;-82
2022/08/24 08:03:17;;;;;;;3.73;3.43;;;;;;;;;;5011142;28;20195;-81
2022/08/24 08:05:42;;;;;;;3.10;2.90;;;;;;;;;;5010948;28;20176;-81
2022/08/24 08:08:07;;;;;;;3.53;3.23;;;;;;;;;;5012223;28;20183;-82
2022/08/24 08:10:34;;;;;;;2.80;2.60;;;;;;;;;;5007453;28;20291;-83
2022/08/24 08:13:01;;;;;;;3.70;2.60;;;;;;;;;;4990795;28;20232;-80
2022/08/24 08:15:26;;;;;;;3.43;3.13;;;;;;;;;;4991504;28;20170;-82
2022/08/24 08:17:52;;;;;;;5.80;3.30;;;;;;;;;;4991540;28;20215;-83
2022/08/24 08:20:17;;;;;;;2.60;2.40;;;;;;;;;;5019655;28;20164;-82
2022/08/24 08:25:26;;;;;;;5.10;3.40;;;;;;;;;;5011855;28;20185;-81
2022/08/24 08:27:52;;;;;;;4.17;3.17;;;;;;;;;;5007062;28;20194;-82
2022/08/24 08:30:17;;;;;;;4.10;3.17;;;;;;;;;;4991405;28;20209;-82
2022/08/24 08:32:42;;;;;;;3.50;3.20;;;;;;;;;;5005347;28;20281;-79
2022/08/24 08:35:07;;;;;;;3.90;3.10;;;;;;;;;;5008441;28;20186;-81
2022/08/24 08:37:33;;;;;;;4.23;2.93;;;;;;;;;;5010786;28;20169;-81
2022/08/24 08:39:58;;;;;;;8.77;3.27;;;;;;;;;;5010270;28;20179;-81
2022/08/24 08:42:26;;;;;;;2.97;2.70;;;;;;;;;;5011327;28;20283;-82
2022/08/24 08:45:16;;;;;;;3.57;2.67;;;;;;;;;;5002548;28;20187;-83
2022/08/24 08:47:42;;;;;;;3.80;2.90;;;;;;;;;;5003627;28;20175;-79
2022/08/24 08:50:18;;;;;;;5.77;2.43;;;;;;;;;;5010289;28;20236;-82
2022/08/24 08:52:56;;;;;;;2.90;2.70;;;;;;;;;;5009586;28;20223;-80
2022/08/24 08:55:40;;;;;;;2.93;2.50;;;;;;;;;;5026925;28;20170;-82
2022/08/24 08:58:10;;;;;;;3.85;2.95;;;;;;;;;;5026377;28;20182;-81
2022/08/24 09:01:00;;;;;;;3.60;2.40;;;;;;;;;;5010774;28;20224;-80
2022/08/24 09:03:25;;;;;;;3.78;2.60;;;;;;;;;;5000342;28;20643;-82
2022/08/24 09:05:54;;;;;;;4.90;2.78;;;;;;;;;;5026691;28;20172;-82
2022/08/24 09:08:28;;;;;;;2.88;2.50;;;;;;;;;;5026576;28;20171;-81
2022/08/24 09:11:02;;;;;;;4.00;2.70;;;;;;;;;;5011203;28;20210;-81
2022/08/24 09:13:46;;;;;;;2.67;2.47;;;;;;;;;;5010973;28;20167;-81
2022/08/24 09:16:30;;;;;;;4.25;2.83;;;;;;;;;;5026286;28;20176;-81
2022/08/24 09:19:04;;;;;;;2.88;2.67;;;;;;;;;;5011704;28;20255;-81
2022/08/24 09:21:40;;;;;;;4.68;2.45;;;;;;;;;;5025930;28;20178;-79
2022/08/24 09:24:20;;;;;;;4.55;3.10;;;;;;;;;;5009413;28;20186;-84
2022/08/24 09:26:58;;;;;;;3.40;2.60;;;;;;;;;;5010226;28;20491;-82
2022/08/24 09:29:41;;;;;;;2.58;2.38;;;;;;;;;;5009596;28;20230;-82
2022/08/24 09:32:06;;;;;;;3.60;2.60;;;;;;;;;;5008769;28;20337;-82
2022/08/24 09:34:42;;;;;;;4.82;3.08;;;;;;;;;;5002221;28;20313;-80
2022/08/24 09:37:22;;;;;;;6.40;2.92;;;;;;;;;;5008955;28;20226;-82
2022/08/24 09:40:00;;;;;;;2.75;2.55;;;;;;;;;;5010824;28;20195;-81
2022/08/24 09:42:44;;;;;;;5.15;2.53;;;;;;;;;;5017536;28;20187;-81
2022/08/24 09:45:09;;;;;;;4.82;2.88;;;;;;;;;;5006850;28;20225;-81
2022/08/24 09:47:54;;;;;;;4.00;2.85;;;;;;;;;;5009505;28;20276;-81
2022/08/24 09:50:37;;;;;;;3.35;2.13;;;;;;;;;;5010686;28;20172;-81
2022/08/24 09:53:15;;;;;;;4.50;2.85;;;;;;;;;;4999367;28;20203;-83
2022/08/24 09:55:52;;;;;;;3.22;2.13;;;;;;;;;;5006469;28;20251;-82
2022/08/24 09:58:17;;;;;;;3.55;2.88;;;;;;;;;;5019722;28;20203;-82
2022/08/24 10:00:47;;;;;;;5.35;2.50;;;;;;;;;;5018974;28;20272;-80
2022/08/24 10:03:26;;;;;;;2.70;2.28;;;;;;;;;;5009471;28;20176;-82
2022/08/24 10:05:55;;;;;;;3.55;2.50;;;;;;;;;;5009601;28;20182;-83
2022/08/24 10:08:46;;;;;;;3.83;2.80;;;;;;;;;;5009319;28;20437;-83
2022/08/24 10:11:29;;;;;;;5.90;2.70;;;;;;;;;;4985896;28;20208;-82
2022/08/24 10:14:02;;;;;;;2.30;2.20;;;;;;;;;;4990291;28;20164;-82
2022/08/24 10:16:56;;;;;;;3.33;2.40;;;;;;;;;;4990905;28;20226;-82
2022/08/24 10:19:22;;;;;;;3.40;2.58;;;;;;;;;;4940939;28;20273;-83
2022/08/24 10:21:53;;;;;;;2.65;2.40;;;;;;;;;;5018848;28;20216;-82
2022/08/24 10:24:36;;;;;;;3.38;2.35;;;;;;;;;;5029866;28;20178;-80
2022/08/24 10:27:17;;;;;;;7.20;2.33;;;;;;;;;;5008365;28;20191;-81
2022/08/24 10:29:42;;;;;;;3.33;2.58;;;;;;;;;;5006246;28;20182;-82
2022/08/24 10:32:11;;;;;;;2.40;2.20;;;;;;;;;;5011207;28;20255;-83
2022/08/24 10:34:50;;;;;;;3.00;2.60;;;;;;;;;;5018048;28;20195;-81
2022/08/24 10:37:34;;;;;;;3.22;2.40;;;;;;;;;;5009367;28;20175;-80
2022/08/24 10:40:09;;;;;;;3.22;2.92;;;;;;;;;;5009041;28;20210;-80
2022/08/24 10:45:53;;;;;;;5.47;2.42;;;;;;;;;;5001757;28;20183;-82
2022/08/24 10:48:45;;;;;;;2.42;2.20;;;;;;;;;;5012701;28;20211;-83
2022/08/24 10:51:22;;;;;;;4.25;2.22;;;;;;;;;;5012020;28;20234;-83
2022/08/24 10:53:51;;;;;;;3.72;2.05;;;;;;;;;;5013671;28;20174;-79
2022/08/24 10:56:18;;;;;;;2.47;2.25;;;;;;;;;;5014042;28;20168;-83
2022/08/24 10:58:50;;;;;;;3.63;2.30;;;;;;;;;;5012668;28;20168;-83
2022/08/24 11:01:23;;;;;;;4.75;2.53;;;;;;;;;;4999705;28;20227;-82
2022/08/24 11:03:54;;;;;;;4.70;2.58;;;;;;;;;;5008777;28;20365;-82
2022/08/24 11:06:20;;;;;;;4.28;2.70;;;;;;;;;;5009082;28;20191;-82
2022/08/24 11:08:54;;;;;;;3.03;2.65;;;;;;;;;;5021664;28;20184;-81
2022/08/24 11:11:24;;;;;;;3.08;2.65;;;;;;;;;;5012550;28;20215;-81
2022/08/24 11:13:51;;;;;;;3.38;2.65;;;;;;;;;;5012279;28;20206;-82
2022/08/24 11:16:24;;;;;;;4.00;2.58;;;;;;;;;;5012122;28;20176;-79
2022/08/24 11:18:52;;;;;;;3.25;2.72;;;;;;;;;;5012921;28;20176;-83
2022/08/24 11:21:31;;;;;;;5.25;2.90;;;;;;;;;;5027252;28;20276;-83
2022/08/24 11:24:00;;;;;;;3.67;3.22;;;;;;;;;;5012764;28;20179;-79
2022/08/24 11:26:25;;;;;;;4.65;2.80;;;;;;;;;;5012256;28;20230;-82
2022/08/24 11:28:57;;;;;;;5.00;3.00;;;;;;;;;;5011342;28;20172;-82
2022/08/24 11:31:31;;;;;;;4.60;2.72;;;;;;;;;;5011504;28;20207;-79
2022/08/24 11:34:02;;;;;;;2.83;2.63;;;;;;;;;;5002980;28;20264;-79
2022/08/24 11:36:30;;;;;;;3.67;2.88;;;;;;;;;;5027459;28;20271;-81
2022/08/24 11:39:16;;;;;;;2.90;2.60;;;;;;;;;;5011471;28;20190;-81
2022/08/24 11:41:52;;;;;;;3.20;2.80;;;;;;;;;;5012538;28;20207;-82
2022/08/24 11:44:36;;;;;;;3.15;2.47;;;;;;;;;;5011500;28;20186;-82
2022/08/24 11:47:28;;;;;;;3.10;2.70;;;;;;;;;;5011421;28;20270;-81
2022/08/24 11:49:58;;;;;;;2.97;2.67;;;;;;;;;;5000277;28;20195;-80
2022/08/24 11:52:30;;;;;;;2.63;2.42;;;;;;;;;;4993558;28;20204;-82
2022/08/24 11:54:55;;;;;;;3.05;2.70;;;;;;;;;;4991968;28;20163;-80
2022/08/24 11:57:27;;;;;;;3.25;2.53;;;;;;;;;;4998477;28;20171;-83
2022/08/24 12:00:02;;;;;;;2.90;2.70;;;;;;;;;;5010628;28;20215;-81
2022/08/24 12:02:32;;;;;;;2.70;2.50;;;;;;;;;;5011175;28;20179;-81
2022/08/24 12:05:16;;;;;;;3.25;2.70;;;;;;;;;;5011586;28;20171;-81
2022/08/24 12:07:59;;;;;;;3.85;2.70;;;;;;;;;;5011372;28;20182;-82
2022/08/24 12:10:28;;;;;;;3.53;2.47;;;;;;;;;;4992461;28;20248;-80
2022/08/24 12:12:57;;;;;;;3.42;3.05;;;;;;;;;;4991409;28;20219;-82
2022/08/24 12:15:41;;;;;;;2.83;2.63;;;;;;;;;;4992881;28;20169;-81
2022/08/24 12:18:33;;;;;;;5.68;2.67;;;;;;;;;;5007783;28;20263;-81
2022/08/24 12:20:59;;;;;;;2.92;2.20;;;;;;;;;;4996793;28;20318;-82
2022/08/24 12:23:36;;;;;;;3.53;2.70;;;;;;;;;;5030929;28;20258;-79
2022/08/24 12:26:05;;;;;;;3.22;2.92;;;;;;;;;;5010381;28;20176;-82
2022/08/24 12:28:42;;;;;;;2.45;2.33;;;;;;;;;;5007956;28;20178;-81
2022/08/24 12:31:20;;;;;;;3.33;2.15;;;;;;;;;;4992606;28;20215;-80
2022/08/24 12:33:49;;;;;;;3.78;2.88;;;;;;;;;;5012812;28;20198;-82
2022/08/24 12:36:19;;;;;;;3.65;2.90;;;;;;;;;;5012088;28;20175;-80
2022/08/24 12:38:48;;;;;;;2.88;2.40;;;;;;;;;;5010708;28;20175;-81
2022/08/24 12:41:25;;;;;;;2.70;2.50;;;;;;;;;;5010403;28;20175;-81
2022/08/24 12:43:57;;;;;;;2.50;2.30;;;;;;;;;;5009773;28;20175;-81
2022/08/24 12:46:23;;;;;;;5.40;2.22;;;;;;;;;;5010420;28;20210;-80
2022/08/24 12:49:01;;;;;;;2.45;2.00;;;;;;;;;;5011868;28;20179;-82
2022/08/24 12:51:39;;;;;;;2.50;2.30;;;;;;;;;;5010254;28;20326;-82
2022/08/24 12:54:21;;;;;;;2.47;2.28;;;;;;;;;;5011180;28;20302;-81
2022/08/24 12:56:47;;;;;;;2.70;2.50;;;;;;;;;;5010348;28;20182;-81
2022/08/24 12:59:19;;;;;;;3.20;2.20;;;;;;;;;;5006131;28;20181;-81
2022/08/24 13:01:56;;;;;;;5.35;2.30;;;;;;;;;;4991828;28;20172;-82
2022/08/24 13:04:33;;;;;;;2.95;2.17;;;;;;;;;;5006740;28;20183;-80
2022/08/24 13:07:00;;;;;;;2.03;1.92;;;;;;;;;;4991512;28;20161;-82
2022/08/24 13:09:33;;;;;;;2.97;2.25;;;;;;;;;;5006764;28;20180;-80
2022/08/24 13:12:21;;;;;;;5.15;2.30;;;;;;;;;;4991425;28;20211;-80
2022/08/24 13:14:49;;;;;;;2.33;2.03;;;;;;;;;;5006577;28;20179;-80
2022/08/24 13:17:16;;;;;;;1.98;1.77;;;;;;;;;;5002338;28;20182;-81
2022/08/24 13:19:43;;;;;;;3.42;2.10;;;;;;;;;;5019885;28;20171;-81
2022/08/24 13:22:08;;;;;;;2.45;2.22;;;;;;;;;;5016826;28;20192;-82
2022/08/24 13:24:33;;;;;;;2.50;2.20;;;;;;;;;;5011089;28;20178;-81
2022/08/24 13:27:10;;;;;;;3.27;2.00;;;;;;;;;;5009763;28;20175;-82
2022/08/24 13:29:37;;;;;;;3.75;2.30;;;;;;;;;;5009330;28;20404;-81
2022/08/24 13:32:04;;;;;;;2.60;2.40;;;;;;;;;;5010725;28;20432;-81
2022/08/24 13:34:38;;;;;;;2.28;2.08;;;;;;;;;;5003102;28;20187;-79
2022/08/24 13:37:04;;;;;;;5.15;2.70;;;;;;;;;;5009604;28;20171;-79
2022/08/24 13:39:46;;;;;;;4.10;2.13;;;;;;;;;;5009416;28;20289;-81
2022/08/24 13:42:14;;;;;;;2.35;2.15;;;;;;;;;;5009360;28;20179;-81
2022/08/24 13:44:58;;;;;;;2.55;2.25;;;;;;;;;;5010795;28;20164;-81
2022/08/24 13:47:32;;;;;;;2.85;2.13;;;;;;;;;;5024891;28;20176;-82
2022/08/24 13:50:11;;;;;;;2.33;2.13;;;;;;;;;;5007924;28;20284;-81
2022/08/24 13:52:55;;;;;;;3.08;2.13;;;;;;;;;;4990813;28;20250;-79
2022/08/24 13:55:28;;;;;;;2.00;1.90;;;;;;;;;;4990805;28;20168;-80
2022/08/24 13:58:02;;;;;;;2.88;2.10;;;;;;;;;;5016420;28;20206;-80
2022/08/24 14:00:27;;;;;;;3.10;2.42;;;;;;;;;;5009095;28;20222;-80
2022/08/24 14:03:05;;;;;;;3.00;2.17;;;;;;;;;;5009434;28;20176;-79
2022/08/24 14:05:30;;;;;;;4.25;2.15;;;;;;;;;;5010757;28;20397;-80
2022/08/24 14:08:03;;;;;;;2.53;2.00;;;;;;;;;;4999663;28;20246;-81
2022/08/24 14:10:31;;;;;;;2.35;2.25;;;;;;;;;;4990907;28;20172;-80
2022/08/24 14:13:04;;;;;;;3.08;2.08;;;;;;;;;;5019921;28;20305;-79
2022/08/24 14:15:45;;;;;;;3.88;2.40;;;;;;;;;;5010477;28;20245;-80
2022/08/24 14:18:13;;;;;;;2.38;2.17;;;;;;;;;;5011471;28;20168;-81
2022/08/24 14:20:52;;;;;;;2.67;1.95;;;;;;;;;;5031001;28;20163;-79
2022/08/24 14:23:33;;;;;;;4.57;2.47;;;;;;;;;;4993394;28;20176;-80
2022/08/24 14:26:17;;;;;;;2.58;2.10;;;;;;;;;;5010017;28;20180;-81
2022/08/24 14:28:42;;;;;;;2.20;1.88;;;;;;;;;;5009655;28;20180;-81
2022/08/24 14:31:26;;;;;;;2.20;2.00;;;;;;;;;;5009617;28;20183;-80
2022/08/24 14:33:51;;;;;;;5.22;2.20;;;;;;;;;;5024776;28;20195;-80
2022/08/24 14:36:19;;;;;;;2.20;2.00;;;;;;;;;;5012471;28;20222;-78
2022/08/24 14:39:01;;;;;;;4.45;3.83;;;;;;;;;;5014278;28;20420;-79
2022/08/24 14:41:29;;;;;;;4.68;2.30;;;;;;;;;;5012009;28;20294;-81
2022/08/24 14:44:13;;;;;;;3.35;2.13;;;;;;;;;;5013847;28;20375;-80
2022/08/24 14:47:05;;;;;;;1.85;1.75;;;;;;;;;;5012396;28;20376;-80
2022/08/24 14:49:34;;;;;;;5.85;2.50;;;;;;;;;;5014434;28;20191;-79
2022/08/24 14:52:06;;;;;;;4.13;2.00;;;;;;;;;;5012519;28;20191;-80
2022/08/24 14:54:31;;;;;;;3.03;1.80;;;;;;;;;;5012662;28;20171;-78
2022/08/24 14:57:11;;;;;;;2.92;1.92;;;;;;;;;;5012483;28;20238;-79
2022/08/24 14:59:51;;;;;;;3.47;2.03;;;;;;;;;;4997185;28;20234;-80
2022/08/24 15:02:17;;;;;;;1.98;1.88;;;;;;;;;;5009440;28;20195;-80
2022/08/24 15:04:56;;;;;;;3.38;1.77;;;;;;;;;;5009281;28;20426;-80